createdAt,value
2023-04-02T00:00:14.705Z,8.90
2023-04-02T00:01:17.310Z,8.90
2023-04-02T00:01:50.394Z,8.90
2023-04-02T00:02:33.183Z,8.90
2023-04-02T00:03:08.530Z,8.90
2023-04-02T00:04:14.427Z,8.90
2023-04-02T00:05:25.920Z,8.90
2023-04-02T00:05:58.706Z,8.90
2023-04-02T00:06:34.918Z,8.90
2023-04-02T00:07:30.642Z,8.90
2023-04-02T00:08:04.344Z,8.90
2023-04-02T00:08:40.881Z,8.90
2023-04-02T00:09:31.209Z,8.90
2023-04-02T00:10:04.061Z,8.90
2023-04-02T00:10:37.981Z,8.90
2023-04-02T00:11:10.148Z,8.90
2023-04-02T00:11:44.127Z,8.90
2023-04-02T00:12:20.607Z,8.90
2023-04-02T00:13:00.857Z,8.90
2023-04-02T00:13:35.602Z,8.90
2023-04-02T00:14:17.557Z,8.90
2023-04-02T00:14:52.946Z,8.90
2023-04-02T00:15:24.847Z,8.90
2023-04-02T00:15:59.603Z,8.90
2023-04-02T00:16:32.235Z,9.00
2023-04-02T00:17:06.709Z,8.90
2023-04-02T00:17:38.542Z,8.90
2023-04-02T00:18:13.322Z,8.90
2023-04-02T00:18:49.444Z,8.90
2023-04-02T00:19:28.233Z,8.90
2023-04-02T00:20:06.682Z,8.90
2023-04-02T00:20:42.872Z,8.90
2023-04-02T00:21:21.563Z,8.90
2023-04-02T00:21:55.062Z,8.90
2023-04-02T00:22:29.293Z,8.90
2023-04-02T00:23:02.093Z,8.90
2023-04-02T00:23:39.958Z,8.80
2023-04-02T00:24:16.738Z,8.90
2023-04-02T00:24:52.005Z,8.80
2023-04-02T00:25:28.974Z,8.90
2023-04-02T00:26:00.895Z,8.80
2023-04-02T00:26:36.640Z,8.80
2023-04-02T00:27:12.647Z,8.80
2023-04-02T00:27:44.490Z,8.90
2023-04-02T00:28:18.623Z,8.90
2023-04-02T00:28:51.928Z,8.90
2023-04-02T00:29:23.741Z,8.90
2023-04-02T00:29:57.800Z,8.80
2023-04-02T00:30:30.382Z,8.80
2023-04-02T00:31:02.301Z,8.80
2023-04-02T00:31:38.803Z,8.80
2023-04-02T00:32:19.131Z,8.80
2023-04-02T00:32:52.221Z,8.80
2023-04-02T00:33:28.453Z,8.80
2023-04-02T00:34:02.405Z,8.90
2023-04-02T00:34:37.623Z,8.80
2023-04-02T00:35:14.215Z,8.80
2023-04-02T00:35:47.305Z,8.70
2023-04-02T00:36:20.102Z,8.70
2023-04-02T00:36:54.267Z,8.70
2023-04-02T00:37:29.066Z,8.70
2023-04-02T00:38:01.918Z,8.70
2023-04-02T00:38:36.667Z,8.80
2023-04-02T00:39:17.263Z,8.80
2023-04-02T00:39:49.815Z,8.80
2023-04-02T00:40:26.224Z,8.70
2023-04-02T00:41:01.649Z,8.90
2023-04-02T00:41:38.627Z,8.80
2023-04-02T00:42:13.576Z,8.80
2023-04-02T00:42:46.403Z,8.70
2023-04-02T00:43:18.823Z,8.70
2023-04-02T00:43:53.704Z,8.70
2023-04-02T00:44:32.670Z,8.70
2023-04-02T00:45:09.334Z,8.70
2023-04-02T00:45:41.563Z,8.70
2023-04-02T00:46:17.428Z,8.70
2023-04-02T00:46:50.528Z,8.60
2023-04-02T00:47:25.414Z,8.60
2023-04-02T00:47:59.587Z,8.60
2023-04-02T00:48:41.186Z,8.60
2023-04-02T00:49:20.355Z,8.80
2023-04-02T00:49:57.914Z,8.70
2023-04-02T00:50:34.196Z,8.70
2023-04-02T00:51:14.143Z,8.60
2023-04-02T00:51:53.151Z,8.60
2023-04-02T00:52:27.752Z,8.60
2023-04-02T00:53:04.380Z,8.60
2023-04-02T00:53:38.036Z,8.70
2023-04-02T00:54:15.723Z,8.70
2023-04-02T00:54:51.372Z,8.70
2023-04-02T00:55:27.370Z,8.70
2023-04-02T00:55:59.618Z,8.70
2023-04-02T00:56:34.301Z,8.70
2023-04-02T00:57:16.286Z,8.70
2023-04-02T00:57:49.618Z,8.70
2023-04-02T00:58:26.318Z,8.70
2023-04-02T00:58:59.656Z,8.70
2023-04-02T00:59:33.751Z,8.60
2023-04-02T01:00:19.697Z,8.70
2023-04-02T01:00:52.967Z,8.60
2023-04-02T01:01:27.908Z,8.60
2023-04-02T01:02:19.778Z,8.70
2023-04-02T01:03:34.502Z,8.60
2023-04-02T01:04:29.027Z,8.70
2023-04-02T01:05:03.377Z,8.70
2023-04-02T01:05:35.741Z,8.70
2023-04-02T01:06:11.343Z,8.70
2023-04-02T01:06:45.909Z,8.70
2023-04-02T01:07:18.290Z,8.70
2023-04-02T01:08:00.499Z,8.70
2023-04-02T01:08:49.538Z,8.80
2023-04-02T01:09:33.249Z,8.70
2023-04-02T01:10:33.058Z,8.70
2023-04-02T01:11:15.284Z,8.70
2023-04-02T01:12:09.039Z,8.70
2023-04-02T01:12:51.400Z,8.70
2023-04-02T01:13:31.984Z,8.60
2023-04-02T01:14:12.629Z,8.60
2023-04-02T01:14:51.031Z,8.60
2023-04-02T01:15:30.137Z,8.60
2023-04-02T01:16:07.403Z,8.60
2023-04-02T01:16:50.326Z,8.60
2023-04-02T01:17:33.729Z,8.70
2023-04-02T01:18:26.694Z,8.80
2023-04-02T01:19:09.595Z,8.60
2023-04-02T01:20:17.022Z,8.60
2023-04-02T01:21:21.773Z,8.60
2023-04-02T01:21:59.391Z,8.60
2023-04-02T01:22:39.881Z,8.60
2023-04-02T01:23:17.301Z,8.60
2023-04-02T01:23:57.677Z,8.60
2023-04-02T01:24:34.713Z,8.70
2023-04-02T01:25:06.895Z,8.60
2023-04-02T01:25:43.651Z,8.60
2023-04-02T01:26:27.850Z,8.60
2023-04-02T01:27:02.035Z,8.60
2023-04-02T01:27:39.829Z,8.60
2023-04-02T01:28:20.373Z,8.60
2023-04-02T01:29:02.034Z,8.60
2023-04-02T01:29:37.101Z,8.60
2023-04-02T01:30:11.887Z,8.70
2023-04-02T01:30:47.646Z,8.60
2023-04-02T01:31:19.759Z,8.70
2023-04-02T01:31:54.908Z,8.70
2023-04-02T01:32:30.333Z,8.70
2023-04-02T01:33:02.313Z,8.70
2023-04-02T01:33:36.506Z,8.70
2023-04-02T01:34:12.390Z,8.70
2023-04-02T01:34:47.071Z,8.70
2023-04-02T01:35:20.430Z,8.70
2023-04-02T01:35:59.447Z,8.70
2023-04-02T01:36:40.847Z,8.70
2023-04-02T01:37:32.187Z,8.70
2023-04-02T01:38:13.687Z,8.70
2023-04-02T01:38:55.777Z,8.70
2023-04-02T01:39:42.600Z,8.70
2023-04-02T01:40:29.454Z,8.70
2023-04-02T01:41:08.245Z,8.80
2023-04-02T01:41:45.114Z,8.70
2023-04-02T01:42:25.454Z,8.70
2023-04-02T01:43:06.255Z,8.70
2023-04-02T01:43:46.545Z,8.60
2023-04-02T01:44:26.290Z,8.60
2023-04-02T01:45:02.630Z,8.60
2023-04-02T01:45:34.955Z,8.60
2023-04-02T01:46:25.814Z,8.70
2023-04-02T01:47:00.639Z,8.70
2023-04-02T01:47:33.275Z,8.70
2023-04-02T01:48:07.997Z,8.70
2023-04-02T01:48:39.948Z,8.70
2023-04-02T01:49:13.886Z,8.60
2023-04-02T01:49:48.049Z,8.70
2023-04-02T01:50:31.714Z,8.60
2023-04-02T01:51:07.778Z,8.70
2023-04-02T01:51:43.483Z,8.70
2023-04-02T01:52:19.145Z,8.70
2023-04-02T01:52:55.376Z,8.70
2023-04-02T01:53:31.102Z,8.70
2023-04-02T01:54:06.071Z,8.70
2023-04-02T01:54:38.854Z,8.70
2023-04-02T01:55:13.221Z,8.70
2023-04-02T01:55:48.603Z,8.70
2023-04-02T01:56:21.615Z,8.70
2023-04-02T01:56:54.442Z,8.60
2023-04-02T01:57:28.340Z,8.70
2023-04-02T01:58:01.954Z,8.80
2023-04-02T01:58:34.937Z,8.80
2023-04-02T01:59:07.103Z,8.80
2023-04-02T01:59:40.584Z,8.80
2023-04-02T02:00:15.638Z,8.80
2023-04-02T02:00:51.880Z,8.70
2023-04-02T02:01:26.968Z,8.70
2023-04-02T02:02:02.905Z,8.70
2023-04-02T02:02:35.875Z,8.70
2023-04-02T02:03:09.994Z,8.70
2023-04-02T02:03:45.170Z,8.80
2023-04-02T02:04:18.019Z,8.70
2023-04-02T02:04:50.268Z,8.60
2023-04-02T02:05:24.346Z,8.70
2023-04-02T02:05:56.900Z,8.60
2023-04-02T02:06:28.912Z,8.70
2023-04-02T02:07:03.364Z,8.70
2023-04-02T02:07:35.640Z,8.70
2023-04-02T02:08:17.030Z,8.60
2023-04-02T02:08:54.230Z,8.70
2023-04-02T02:09:28.983Z,8.70
2023-04-02T02:10:01.286Z,8.60
2023-04-02T02:10:35.724Z,8.60
2023-04-02T02:11:15.602Z,8.60
2023-04-02T02:11:48.806Z,8.60
2023-04-02T02:12:20.629Z,8.60
2023-04-02T02:12:53.787Z,8.60
2023-04-02T02:13:25.664Z,8.60
2023-04-02T02:13:59.719Z,8.70
2023-04-02T02:14:32.738Z,8.70
2023-04-02T02:15:14.828Z,8.70
2023-04-02T02:15:47.209Z,8.70
2023-04-02T02:16:19.774Z,8.70
2023-04-02T02:16:56.630Z,8.70
2023-04-02T02:17:34.253Z,8.70
2023-04-02T02:18:07.756Z,8.70
2023-04-02T02:18:40.783Z,8.60
2023-04-02T02:19:22.250Z,8.70
2023-04-02T02:19:57.618Z,8.70
2023-04-02T02:20:30.885Z,8.80
2023-04-02T02:21:05.076Z,8.70
2023-04-02T02:21:40.079Z,8.70
2023-04-02T02:22:19.912Z,8.70
2023-04-02T02:22:52.031Z,8.70
2023-04-02T02:23:24.141Z,8.70
2023-04-02T02:23:58.112Z,8.70
2023-04-02T02:24:32.329Z,8.70
2023-04-02T02:25:07.386Z,8.70
2023-04-02T02:25:40.958Z,8.70
2023-04-02T02:26:13.956Z,8.70
2023-04-02T02:26:48.240Z,8.70
2023-04-02T02:27:45.126Z,8.70
2023-04-02T02:28:18.832Z,8.70
2023-04-02T02:28:56.566Z,8.70
2023-04-02T02:29:29.472Z,8.70
2023-04-02T02:30:07.394Z,8.60
2023-04-02T02:30:45.798Z,8.70
2023-04-02T02:31:22.625Z,8.70
2023-04-02T02:31:56.092Z,8.70
2023-04-02T02:32:30.847Z,8.70
2023-04-02T02:33:09.958Z,8.70
2023-04-02T02:33:45.986Z,8.70
2023-04-02T02:34:22.673Z,8.60
2023-04-02T02:35:01.303Z,8.60
2023-04-02T02:35:38.463Z,8.60
2023-04-02T02:36:17.068Z,8.70
2023-04-02T02:36:55.758Z,8.60
2023-04-02T02:37:31.091Z,8.60
2023-04-02T02:38:25.745Z,8.60
2023-04-02T02:39:02.511Z,8.60
2023-04-02T02:39:38.889Z,8.60
2023-04-02T02:40:16.673Z,8.60
2023-04-02T02:40:53.665Z,8.60
2023-04-02T02:41:30.587Z,8.60
2023-04-02T02:42:09.365Z,8.60
2023-04-02T02:42:47.209Z,8.60
2023-04-02T02:43:19.492Z,8.60
2023-04-02T02:44:00.132Z,8.60
2023-04-02T02:44:35.006Z,8.60
2023-04-02T02:45:15.970Z,8.60
2023-04-02T02:45:50.583Z,8.50
2023-04-02T02:46:25.207Z,8.60
2023-04-02T02:47:01.173Z,8.60
2023-04-02T02:47:35.468Z,8.50
2023-04-02T02:48:12.716Z,8.50
2023-04-02T02:48:46.578Z,8.50
2023-04-02T02:49:22.213Z,8.50
2023-04-02T02:49:58.988Z,8.50
2023-04-02T02:50:33.707Z,8.60
2023-04-02T02:51:10.824Z,8.60
2023-04-02T02:51:46.212Z,8.60
2023-04-02T02:52:21.652Z,8.60
2023-04-02T02:52:55.953Z,8.60
2023-04-02T02:53:27.764Z,8.60
2023-04-02T02:54:05.351Z,8.60
2023-04-02T02:54:41.463Z,8.50
2023-04-02T02:55:17.299Z,8.50
2023-04-02T02:55:53.695Z,8.50
2023-04-02T02:56:26.645Z,8.50
2023-04-02T02:57:03.173Z,8.50
2023-04-02T02:57:40.253Z,8.50
2023-04-02T02:58:15.609Z,8.50
2023-04-02T02:58:47.602Z,8.50
2023-04-02T02:59:22.203Z,8.50
2023-04-02T02:59:56.313Z,8.50
2023-04-02T03:00:29.494Z,8.50
2023-04-02T03:01:02.519Z,8.50
2023-04-02T03:01:34.581Z,8.50
2023-04-02T03:02:07.045Z,8.50
2023-04-02T03:02:43.218Z,8.50
2023-04-02T03:03:19.242Z,8.50
2023-04-02T03:03:53.739Z,8.50
2023-04-02T03:04:30.578Z,8.50
2023-04-02T03:05:04.711Z,8.50
2023-04-02T03:05:39.929Z,8.50
2023-04-02T03:06:16.541Z,8.50
2023-04-02T03:06:50.072Z,8.50
2023-04-02T03:07:25.557Z,8.50
2023-04-02T03:07:58.359Z,8.50
2023-04-02T03:08:34.748Z,8.50
2023-04-02T03:09:18.435Z,8.50
2023-04-02T03:09:55.827Z,8.50
2023-04-02T03:10:36.633Z,8.50
2023-04-02T03:11:14.256Z,8.50
2023-04-02T03:11:53.204Z,8.50
2023-04-02T03:12:36.911Z,8.50
2023-04-02T03:13:19.955Z,8.50
2023-04-02T03:13:56.052Z,8.50
2023-04-02T03:14:32.623Z,8.60
2023-04-02T03:15:13.368Z,8.60
2023-04-02T03:15:59.165Z,8.60
2023-04-02T03:16:36.696Z,8.60
2023-04-02T03:17:16.048Z,8.60
2023-04-02T03:17:54.532Z,8.60
2023-04-02T03:18:37.237Z,8.60
2023-04-02T03:19:18.143Z,8.60
2023-04-02T03:19:56.590Z,8.60
2023-04-02T03:20:38.040Z,8.60
2023-04-02T03:21:19.063Z,8.60
2023-04-02T03:21:55.909Z,8.50
2023-04-02T03:22:32.085Z,8.50
2023-04-02T03:23:12.217Z,8.50
2023-04-02T03:23:48.933Z,8.50
2023-04-02T03:24:33.184Z,8.50
2023-04-02T03:25:14.897Z,8.50
2023-04-02T03:25:52.390Z,8.50
2023-04-02T03:26:31.280Z,8.50
2023-04-02T03:27:10.177Z,8.50
2023-04-02T03:27:46.667Z,8.50
2023-04-02T03:28:23.322Z,8.50
2023-04-02T03:29:02.667Z,8.50
2023-04-02T03:29:38.692Z,8.50
2023-04-02T03:30:28.484Z,8.50
2023-04-02T03:31:06.875Z,8.50
2023-04-02T03:31:41.903Z,8.50
2023-04-02T03:32:17.325Z,8.50
2023-04-02T03:32:55.600Z,8.50
2023-04-02T03:33:31.651Z,8.50
2023-04-02T03:34:08.580Z,8.50
2023-04-02T03:34:47.620Z,8.40
2023-04-02T03:35:24.656Z,8.40
2023-04-02T03:36:02.863Z,8.40
2023-04-02T03:36:43.491Z,8.40
2023-04-02T03:37:22.028Z,8.40
2023-04-02T03:37:58.904Z,8.40
2023-04-02T03:38:34.998Z,8.50
2023-04-02T03:39:14.841Z,8.50
2023-04-02T03:39:51.768Z,8.50
2023-04-02T03:40:29.841Z,8.50
2023-04-02T03:41:06.455Z,8.40
2023-04-02T03:41:44.879Z,8.40
2023-04-02T03:42:22.442Z,8.40
2023-04-02T03:43:01.345Z,8.40
2023-04-02T03:43:39.565Z,8.40
2023-04-02T03:44:20.575Z,8.40
2023-04-02T03:44:57.225Z,8.40
2023-04-02T03:45:36.394Z,8.40
2023-04-02T03:46:24.516Z,8.40
2023-04-02T03:47:01.399Z,8.40
2023-04-02T03:47:37.842Z,8.40
2023-04-02T03:48:15.845Z,8.40
2023-04-02T03:48:52.386Z,8.40
2023-04-02T03:49:32.205Z,8.50
2023-04-02T03:50:07.054Z,8.50
2023-04-02T03:50:46.208Z,8.50
2023-04-02T03:51:23.758Z,8.50
2023-04-02T03:52:00.399Z,8.40
2023-04-02T03:52:36.539Z,8.40
2023-04-02T03:53:09.161Z,8.40
2023-04-02T03:53:42.719Z,8.40
2023-04-02T03:54:17.684Z,8.40
2023-04-02T03:54:53.967Z,8.40
2023-04-02T03:55:29.922Z,8.40
2023-04-02T03:56:02.303Z,8.40
2023-04-02T03:56:39.810Z,8.40
2023-04-02T03:57:23.425Z,8.50
2023-04-02T03:58:01.201Z,8.50
2023-04-02T03:58:40.540Z,8.50
2023-04-02T03:59:18.179Z,8.50
2023-04-02T03:59:57.024Z,8.50
2023-04-02T04:00:37.284Z,8.50
2023-04-02T04:01:17.345Z,8.60
2023-04-02T04:01:55.178Z,8.60
2023-04-02T04:02:39.442Z,8.50
2023-04-02T04:03:14.296Z,8.50
2023-04-02T04:03:50.205Z,8.50
2023-04-02T04:04:24.124Z,8.50
2023-04-02T04:04:57.318Z,8.50
2023-04-02T04:05:31.888Z,8.50
2023-04-02T04:06:08.317Z,8.40
2023-04-02T04:06:43.897Z,8.40
2023-04-02T04:07:30.971Z,8.40
2023-04-02T04:08:05.603Z,8.40
2023-04-02T04:08:45.235Z,8.40
2023-04-02T04:09:24.135Z,8.40
2023-04-02T04:09:57.596Z,8.40
2023-04-02T04:10:31.878Z,8.40
2023-04-02T04:11:09.795Z,8.40
2023-04-02T04:11:46.398Z,8.40
2023-04-02T04:12:27.762Z,8.40
2023-04-02T04:13:06.018Z,8.40
2023-04-02T04:13:44.735Z,8.30
2023-04-02T04:14:20.462Z,8.30
2023-04-02T04:14:57.348Z,8.30
2023-04-02T04:15:33.770Z,8.40
2023-04-02T04:16:10.652Z,8.30
2023-04-02T04:16:49.253Z,8.40
2023-04-02T04:17:29.737Z,8.30
2023-04-02T04:18:06.174Z,8.30
2023-04-02T04:18:46.510Z,8.30
2023-04-02T04:19:24.784Z,8.30
2023-04-02T04:20:08.075Z,8.30
2023-04-02T04:20:45.969Z,8.30
2023-04-02T04:21:29.808Z,8.30
2023-04-02T04:22:15.785Z,8.30
2023-04-02T04:22:49.749Z,8.40
2023-04-02T04:23:30.047Z,8.40
2023-04-02T04:24:03.932Z,8.30
2023-04-02T04:24:39.193Z,8.30
2023-04-02T04:25:22.293Z,8.30
2023-04-02T04:25:58.797Z,8.30
2023-04-02T04:26:40.378Z,8.30
2023-04-02T04:27:21.537Z,8.30
2023-04-02T04:28:05.737Z,8.30
2023-04-02T04:28:45.207Z,8.30
2023-04-02T04:29:31.891Z,8.30
2023-04-02T04:30:14.726Z,8.30
2023-04-02T04:30:53.111Z,8.30
2023-04-02T04:31:33.872Z,8.30
2023-04-02T04:32:19.575Z,8.30
2023-04-02T04:32:58.876Z,8.30
2023-04-02T04:33:39.490Z,8.30
2023-04-02T04:34:16.381Z,8.30
2023-04-02T04:34:53.585Z,8.40
2023-04-02T04:35:29.374Z,8.40
2023-04-02T04:36:03.869Z,8.40
2023-04-02T04:36:47.720Z,8.30
2023-04-02T04:37:25.160Z,8.30
2023-04-02T04:38:03.743Z,8.30
2023-04-02T04:38:39.556Z,8.30
2023-04-02T04:39:15.721Z,8.30
2023-04-02T04:39:54.946Z,8.30
2023-04-02T04:40:30.472Z,8.20
2023-04-02T04:41:05.383Z,8.20
2023-04-02T04:41:40.286Z,8.20
2023-04-02T04:42:18.244Z,8.20
2023-04-02T04:42:56.396Z,8.20
2023-04-02T04:43:38.338Z,8.20
2023-04-02T04:44:17.770Z,8.20
2023-04-02T04:44:58.538Z,8.20
2023-04-02T04:45:40.434Z,8.30
2023-04-02T04:46:17.540Z,8.30
2023-04-02T04:46:55.838Z,8.30
2023-04-02T04:47:33.309Z,8.30
2023-04-02T04:48:09.803Z,8.30
2023-04-02T04:48:50.761Z,8.30
2023-04-02T04:49:27.214Z,8.30
2023-04-02T04:50:05.830Z,8.30
2023-04-02T04:50:46.295Z,8.30
2023-04-02T04:51:23.112Z,8.30
2023-04-02T04:51:58.431Z,8.30
2023-04-02T04:52:36.304Z,8.30
2023-04-02T04:53:14.830Z,8.30
2023-04-02T04:53:48.362Z,8.30
2023-04-02T04:54:21.599Z,8.30
2023-04-02T04:54:53.494Z,8.30
2023-04-02T04:55:29.517Z,8.30
2023-04-02T04:56:16.408Z,8.30
2023-04-02T04:56:55.253Z,8.30
2023-04-02T04:57:32.487Z,8.30
2023-04-02T04:58:15.707Z,8.30
2023-04-02T04:58:51.673Z,8.20
2023-04-02T04:59:30.346Z,8.20
2023-04-02T05:00:12.840Z,8.20
2023-04-02T05:00:53.948Z,8.20
2023-04-02T05:01:31.674Z,8.20
2023-04-02T05:02:08.596Z,8.20
2023-04-02T05:02:47.418Z,8.20
2023-04-02T05:03:29.703Z,8.20
2023-04-02T05:04:07.046Z,8.20
2023-04-02T05:04:41.600Z,8.20
2023-04-02T05:05:19.970Z,8.30
2023-04-02T05:05:52.256Z,8.30
2023-04-02T05:06:36.542Z,8.30
2023-04-02T05:07:12.673Z,8.30
2023-04-02T05:07:49.165Z,8.30
2023-04-02T05:08:26.947Z,8.20
2023-04-02T05:09:04.960Z,8.20
2023-04-02T05:09:41.283Z,8.20
2023-04-02T05:10:20.379Z,8.20
2023-04-02T05:10:55.793Z,8.20
2023-04-02T05:11:34.006Z,8.20
2023-04-02T05:12:17.078Z,8.20
2023-04-02T05:12:53.671Z,8.20
2023-04-02T05:13:32.590Z,8.20
2023-04-02T05:14:08.095Z,8.20
2023-04-02T05:14:46.769Z,8.20
2023-04-02T05:15:24.551Z,8.20
2023-04-02T05:16:04.767Z,8.20
2023-04-02T05:16:42.116Z,8.20
2023-04-02T05:17:19.516Z,8.20
2023-04-02T05:18:12.163Z,8.20
2023-04-02T05:18:50.540Z,8.20
2023-04-02T05:19:29.840Z,8.30
2023-04-02T05:20:09.467Z,8.30
2023-04-02T05:20:47.779Z,8.20
2023-04-02T05:21:25.870Z,8.20
2023-04-02T05:22:02.699Z,8.20
2023-04-02T05:22:42.381Z,8.20
2023-04-02T05:23:19.897Z,8.20
2023-04-02T05:23:55.977Z,8.20
2023-04-02T05:24:43.998Z,8.20
2023-04-02T05:25:23.244Z,8.20
2023-04-02T05:26:03.240Z,8.20
2023-04-02T05:26:42.980Z,8.20
2023-04-02T05:27:28.218Z,8.20
2023-04-02T05:28:06.294Z,8.20
2023-04-02T05:28:44.888Z,8.20
2023-04-02T05:29:22.196Z,8.20
2023-04-02T05:30:01.143Z,8.20
2023-04-02T05:30:49.189Z,8.20
2023-04-02T05:31:26.115Z,8.20
2023-04-02T05:32:01.559Z,8.20
2023-04-02T05:32:37.321Z,8.20
2023-04-02T05:33:22.444Z,8.20
2023-04-02T05:33:55.468Z,8.20
2023-04-02T05:34:31.075Z,8.20
2023-04-02T05:35:06.571Z,8.20
2023-04-02T05:35:44.819Z,8.20
2023-04-02T05:36:20.792Z,8.20
2023-04-02T05:36:54.086Z,8.20
2023-04-02T05:37:30.402Z,8.20
2023-04-02T05:38:02.870Z,8.20
2023-04-02T05:38:38.218Z,8.20
2023-04-02T05:39:11.241Z,8.20
2023-04-02T05:39:45.301Z,8.20
2023-04-02T05:40:24.792Z,8.20
2023-04-02T05:41:02.112Z,8.20
2023-04-02T05:41:38.837Z,8.20
2023-04-02T05:42:17.555Z,8.20
2023-04-02T05:42:52.833Z,8.20
2023-04-02T05:43:27.454Z,8.20
2023-04-02T05:44:06.163Z,8.20
2023-04-02T05:44:45.479Z,8.20
2023-04-02T05:45:26.940Z,8.30
2023-04-02T05:46:04.789Z,8.20
2023-04-02T05:46:48.600Z,8.20
2023-04-02T05:47:24.173Z,8.30
2023-04-02T05:48:01.595Z,8.20
2023-04-02T05:48:39.272Z,8.20
2023-04-02T05:49:21.472Z,8.10
2023-04-02T05:50:00.693Z,8.20
2023-04-02T05:50:37.289Z,8.20
2023-04-02T05:51:17.913Z,8.20
2023-04-02T05:51:54.988Z,8.30
2023-04-02T05:52:32.306Z,8.10
2023-04-02T05:53:11.263Z,8.20
2023-04-02T05:53:49.320Z,8.20
2023-04-02T05:54:27.069Z,8.20
2023-04-02T05:55:06.288Z,8.20
2023-04-02T05:55:43.515Z,8.10
2023-04-02T05:56:19.922Z,8.20
2023-04-02T05:56:56.135Z,8.20
2023-04-02T05:57:43.856Z,8.20
2023-04-02T05:58:35.331Z,8.20
2023-04-02T05:59:16.100Z,8.20
2023-04-02T05:59:53.764Z,8.20
2023-04-02T06:00:41.552Z,8.20
2023-04-02T06:01:24.021Z,8.20
2023-04-02T06:02:03.264Z,8.20
2023-04-02T06:02:39.506Z,8.20
2023-04-02T06:03:23.918Z,8.20
2023-04-02T06:04:04.341Z,8.20
2023-04-02T06:04:44.089Z,8.20
2023-04-02T06:05:20.966Z,8.20
2023-04-02T06:05:57.674Z,8.20
2023-04-02T06:06:44.986Z,8.20
2023-04-02T06:07:22.572Z,8.20
2023-04-02T06:07:58.776Z,8.20
2023-04-02T06:08:36.029Z,8.20
2023-04-02T06:09:13.324Z,8.20
2023-04-02T06:09:50.457Z,8.20
2023-04-02T06:10:28.276Z,8.20
2023-04-02T06:11:06.036Z,8.20
2023-04-02T06:11:42.736Z,8.20
2023-04-02T06:12:30.622Z,8.20
2023-04-02T06:13:06.344Z,8.10
2023-04-02T06:13:38.630Z,8.10
2023-04-02T06:14:14.368Z,8.30
2023-04-02T06:14:46.568Z,8.10
2023-04-02T06:15:22.248Z,8.10
2023-04-02T06:15:55.206Z,8.10
2023-04-02T06:16:30.780Z,8.10
2023-04-02T06:17:03.818Z,8.00
2023-04-02T06:17:46.579Z,8.00
2023-04-02T06:18:23.238Z,8.10
2023-04-02T06:18:57.996Z,8.00
2023-04-02T06:19:37.035Z,8.00
2023-04-02T06:20:16.247Z,8.00
2023-04-02T06:20:48.061Z,8.00
2023-04-02T06:21:21.586Z,8.00
2023-04-02T06:22:00.913Z,8.00
2023-04-02T06:22:36.365Z,8.00
2023-04-02T06:23:15.477Z,8.00
2023-04-02T06:23:54.250Z,8.00
2023-04-02T06:24:28.744Z,8.10
2023-04-02T06:25:06.548Z,8.10
2023-04-02T06:25:42.656Z,8.10
2023-04-02T06:26:19.755Z,8.00
2023-04-02T06:26:57.546Z,8.10
2023-04-02T06:27:30.038Z,8.10
2023-04-02T06:28:06.070Z,8.10
2023-04-02T06:28:46.083Z,8.10
2023-04-02T06:29:25.165Z,8.10
2023-04-02T06:30:03.400Z,8.10
2023-04-02T06:30:39.155Z,8.10
2023-04-02T06:31:23.343Z,8.10
2023-04-02T06:31:58.889Z,8.10
2023-04-02T06:32:31.112Z,8.10
2023-04-02T06:33:03.200Z,8.10
2023-04-02T06:33:36.426Z,8.20
2023-04-02T06:34:15.946Z,8.20
2023-04-02T06:34:48.764Z,8.20
2023-04-02T06:35:20.848Z,8.20
2023-04-02T06:35:54.631Z,8.20
2023-04-02T06:36:28.790Z,8.20
2023-04-02T06:37:03.798Z,8.20
2023-04-02T06:37:40.387Z,8.20
2023-04-02T06:38:18.852Z,8.20
2023-04-02T06:38:53.112Z,8.20
2023-04-02T06:39:26.987Z,8.20
2023-04-02T06:40:01.626Z,8.20
2023-04-02T06:40:40.558Z,8.10
2023-04-02T06:41:17.878Z,8.20
2023-04-02T06:41:59.673Z,8.20
2023-04-02T06:42:34.925Z,8.20
2023-04-02T06:43:14.932Z,8.20
2023-04-02T06:43:50.687Z,8.20
2023-04-02T06:44:26.179Z,8.20
2023-04-02T06:44:58.509Z,8.20
2023-04-02T06:45:35.122Z,8.30
2023-04-02T06:46:11.967Z,8.30
2023-04-02T06:46:48.094Z,8.20
2023-04-02T06:47:29.763Z,8.20
2023-04-02T06:48:03.809Z,8.20
2023-04-02T06:48:37.680Z,8.20
2023-04-02T06:49:21.535Z,8.20
2023-04-02T06:49:58.335Z,8.20
2023-04-02T06:50:36.940Z,8.20
2023-04-02T06:51:11.093Z,8.20
2023-04-02T06:51:46.322Z,8.20
2023-04-02T06:52:23.422Z,8.20
2023-04-02T06:52:59.242Z,8.30
2023-04-02T06:53:35.560Z,8.20
2023-04-02T06:54:15.249Z,8.20
2023-04-02T06:54:47.478Z,8.20
2023-04-02T06:55:31.233Z,8.30
2023-04-02T06:56:06.996Z,8.30
2023-04-02T06:56:43.030Z,8.30
2023-04-02T06:57:16.188Z,8.30
2023-04-02T06:57:48.503Z,8.30
2023-04-02T06:58:21.052Z,8.30
2023-04-02T06:58:53.936Z,8.40
2023-04-02T06:59:26.467Z,8.40
2023-04-02T06:59:59.292Z,8.40
2023-04-02T07:00:41.392Z,8.50
2023-04-02T07:01:17.812Z,8.50
2023-04-02T07:01:54.961Z,8.50
2023-04-02T07:02:31.160Z,8.50
2023-04-02T07:03:06.918Z,8.50
2023-04-02T07:03:41.791Z,8.40
2023-04-02T07:04:15.464Z,8.50
2023-04-02T07:04:48.655Z,8.40
2023-04-02T07:05:20.697Z,8.50
2023-04-02T07:05:52.581Z,8.50
2023-04-02T07:06:25.484Z,8.50
2023-04-02T07:06:57.278Z,8.50
2023-04-02T07:07:30.069Z,8.50
2023-04-02T07:08:01.927Z,8.50
2023-04-02T07:08:34.688Z,8.50
2023-04-02T07:09:06.812Z,8.50
2023-04-02T07:09:38.652Z,8.50
2023-04-02T07:10:13.221Z,8.50
2023-04-02T07:10:45.350Z,8.40
2023-04-02T07:11:20.903Z,8.40
2023-04-02T07:11:53.893Z,8.50
2023-04-02T07:12:26.718Z,8.50
2023-04-02T07:12:58.604Z,8.60
2023-04-02T07:13:31.494Z,8.60
2023-04-02T07:14:03.875Z,8.60
2023-04-02T07:14:35.827Z,8.70
2023-04-02T07:15:11.926Z,8.70
2023-04-02T07:15:45.556Z,8.70
2023-04-02T07:16:19.629Z,8.70
2023-04-02T07:16:52.980Z,8.70
2023-04-02T07:17:24.871Z,8.80
2023-04-02T07:17:59.047Z,8.80
2023-04-02T07:18:33.581Z,8.80
2023-04-02T07:19:05.542Z,8.80
2023-04-02T07:19:38.698Z,8.80
2023-04-02T07:20:25.623Z,8.80
2023-04-02T07:20:58.098Z,8.80
2023-04-02T07:21:30.876Z,8.70
2023-04-02T07:22:03.733Z,8.70
2023-04-02T07:22:35.535Z,8.80
2023-04-02T07:23:08.219Z,8.80
2023-04-02T07:23:40.337Z,8.80
2023-04-02T07:24:13.143Z,8.80
2023-04-02T07:24:45.830Z,8.90
2023-04-02T07:25:17.619Z,8.90
2023-04-02T07:25:51.353Z,8.90
2023-04-02T07:26:25.369Z,9.00
2023-04-02T07:26:58.203Z,9.00
2023-04-02T07:27:30.979Z,9.00
2023-04-02T07:28:02.890Z,9.00
2023-04-02T07:28:35.950Z,9.00
2023-04-02T07:29:08.763Z,9.00
2023-04-02T07:29:42.884Z,9.00
2023-04-02T07:30:15.894Z,9.00
2023-04-02T07:30:48.641Z,9.00
2023-04-02T07:31:23.385Z,9.00
2023-04-02T07:31:56.302Z,9.00
2023-04-02T07:32:28.225Z,8.90
2023-04-02T07:33:00.241Z,9.00
2023-04-02T07:33:33.091Z,9.00
2023-04-02T07:34:05.910Z,9.00
2023-04-02T07:34:39.793Z,9.00
2023-04-02T07:35:13.776Z,8.90
2023-04-02T07:35:46.204Z,8.90
2023-04-02T07:36:20.312Z,8.90
2023-04-02T07:36:53.192Z,8.90
2023-04-02T07:37:25.282Z,8.90
2023-04-02T07:37:57.151Z,9.00
2023-04-02T07:38:29.930Z,9.00
2023-04-02T07:39:01.991Z,8.90
2023-04-02T07:39:36.204Z,8.90
2023-04-02T07:40:18.189Z,8.90
2023-04-02T07:40:50.454Z,8.90
2023-04-02T07:41:23.202Z,8.90
2023-04-02T07:41:57.829Z,8.90
2023-04-02T07:42:29.669Z,8.90
2023-04-02T07:43:02.769Z,8.90
2023-04-02T07:43:35.548Z,9.00
2023-04-02T07:44:07.386Z,9.00
2023-04-02T07:44:40.365Z,9.00
2023-04-02T07:45:12.295Z,9.10
2023-04-02T07:45:44.183Z,9.10
2023-04-02T07:46:19.003Z,9.10
2023-04-02T07:46:51.096Z,9.10
2023-04-02T07:47:24.102Z,9.10
2023-04-02T07:47:56.977Z,9.10
2023-04-02T07:48:28.982Z,9.10
2023-04-02T07:49:01.824Z,9.20
2023-04-02T07:49:33.600Z,9.20
2023-04-02T07:50:08.232Z,9.30
2023-04-02T07:50:41.158Z,9.20
2023-04-02T07:51:18.477Z,9.20
2023-04-02T07:51:52.941Z,9.40
2023-04-02T07:52:24.779Z,9.20
2023-04-02T07:52:56.910Z,9.30
2023-04-02T07:53:31.539Z,9.30
2023-04-02T07:54:04.542Z,9.30
2023-04-02T07:54:38.103Z,9.30
2023-04-02T07:55:12.406Z,9.30
2023-04-02T07:55:44.245Z,9.30
2023-04-02T07:56:18.036Z,9.30
2023-04-02T07:56:51.066Z,9.30
2023-04-02T07:57:22.986Z,9.20
2023-04-02T07:57:56.452Z,9.20
2023-04-02T07:58:29.497Z,9.20
2023-04-02T07:59:01.401Z,9.20
2023-04-02T07:59:34.185Z,9.20
2023-04-02T08:00:07.781Z,9.10
2023-04-02T08:00:39.588Z,9.10
2023-04-02T08:01:18.092Z,9.10
2023-04-02T08:01:51.592Z,9.10
2023-04-02T08:02:24.680Z,9.20
2023-04-02T08:02:56.701Z,9.10
2023-04-02T08:03:29.502Z,9.20
2023-04-02T08:04:04.101Z,9.20
2023-04-02T08:04:36.285Z,9.20
2023-04-02T08:05:11.550Z,9.30
2023-04-02T08:05:43.459Z,9.30
2023-04-02T08:06:16.018Z,9.30
2023-04-02T08:06:50.342Z,9.30
2023-04-02T08:07:22.175Z,9.40
2023-04-02T08:07:55.910Z,9.40
2023-04-02T08:08:28.800Z,9.40
2023-04-02T08:09:00.738Z,9.40
2023-04-02T08:09:33.547Z,9.40
2023-04-02T08:10:06.583Z,9.40
2023-04-02T08:10:39.412Z,9.40
2023-04-02T08:11:11.877Z,9.40
2023-04-02T08:11:46.351Z,9.50